[ ตารางข้อมูล ] [ Min-Max ] [ วันนี้4 ] [ วันนี้2 ] [ เทียบ3วัน A ] [ เทียบ4วัน B ]   

วันนี้2   [ ◀ ช่วงเก่ากว่า ] [ ช่วงที่ 179 ] [ ช่วงใหม่กว่า ▶ ] [ ล่าสุด ]    [ 3 ชั่วโมง ] [ 6 ชั่วโมง ] [ 12 ชั่วโมง ] [ 24 ชั่วโมง ]   วันนี้2

อุณภูมิตู้ Knockdown4529  ราย 3 ชั่วโมง  ที่วัดได้ ในช่วงวันเวลา 11/04/2026 (05:05) ถึง 11/04/2026 (08:05) 
ความชื้นในตู้ Knockdown4529  ราย 3 ชั่วโมง  ที่วัดได้ ในช่วงวันเวลา 11/04/2026 (05:05) ถึง 11/04/2026 (08:05) 

 
DS18B20SHTC3 
IDDate d/m/Y & Timedata1
สูง
data2
ต่ำ
data3
นอก
temp
pcb
hum
pcb
Time
 10795  11/04/2026 08:05:08  28.0  28.0  28.9  28.0  72.0  08:05 
 10794  11/04/2026 08:00:27  28.0  27.9  28.7  27.9  72.1  08:00 
 10793  11/04/2026 07:55:43  27.9  27.9  28.5  27.8  72.2  07:55 
 10792  11/04/2026 07:51:02  27.9  27.9  28.2  27.9  72.2  07:51 
 10791  11/04/2026 07:46:19  27.9  27.9  28.1  27.8  72.3  07:46 
 10790  11/04/2026 07:41:37  27.9  27.9  27.8  27.6  72.3  07:41 
 10789  11/04/2026 07:36:55  27.9  27.9  27.5  27.7  72.5  07:36 
 10788  11/04/2026 07:32:13  27.9  27.9  27.2  27.6  72.6  07:32 
 10787  11/04/2026 07:27:32  27.9  27.9  27.2  27.6  72.8  07:27 
 10786  11/04/2026 07:22:51  27.9  27.9  27.1  27.9  73.0  07:22 
 10785  11/04/2026 07:18:07  28.0  27.9  26.9  27.6  72.9  07:18 
 10784  11/04/2026 07:13:25  28.1  27.9  26.7  27.7  73.1  07:13 
 10783  11/04/2026 07:08:41  28.2  27.9  26.5  27.9  73.6  07:08 
 10782  11/04/2026 07:04:00  28.2  27.9  26.4  27.9  72.9  07:04 
 10781  11/04/2026 06:59:15  28.3  27.9  26.2  27.8  72.8  06:59 
 10780  11/04/2026 06:54:34  28.3  27.9  26.3  27.9  73.3  06:54 
 10779  11/04/2026 06:49:53  28.1  27.8  26.3  27.9  73.0  06:49 
 10778  11/04/2026 06:45:11  28.0  27.8  26.4  27.9  73.7  06:45 
 10777  11/04/2026 06:40:29  27.6  27.7  26.2  27.6  71.5  06:40 
 10776  11/04/2026 06:35:47  27.6  27.7  26.1  27.6  71.5  06:35 
 10775  11/04/2026 06:31:06  27.6  27.8  26.1  27.5  71.5  06:31 
 10774  11/04/2026 06:26:24  27.6  27.8  26.2  27.6  71.5  06:26 
 10773  11/04/2026 06:21:42  27.7  27.8  26.1  27.5  71.6  06:21 
 10772  11/04/2026 06:17:00  27.6  27.8  26.0  27.7  71.6  06:17 

Data every 5 minute.


ใช้เวลาประมวลผล 0.00180 วินาที